sensor_id;sensor_type;location;lat;lon;timestamp;temperature;humidity
15105;DHT22;7653;48.994;9.212;2023-02-19T00:03:34;8.80;99.90
15105;DHT22;7653;48.994;9.212;2023-02-19T00:06:04;8.90;99.90
15105;DHT22;7653;48.994;9.212;2023-02-19T00:08:31;8.80;99.90
15105;DHT22;7653;48.994;9.212;2023-02-19T00:11:04;8.80;99.90
15105;DHT22;7653;48.994;9.212;2023-02-19T00:13:34;8.80;99.90
15105;DHT22;7653;48.994;9.212;2023-02-19T00:16:05;8.80;99.90
15105;DHT22;7653;48.994;9.212;2023-02-19T00:18:33;8.80;99.90
15105;DHT22;7653;48.994;9.212;2023-02-19T00:20:59;8.80;99.90
15105;DHT22;7653;48.994;9.212;2023-02-19T00:23:27;8.90;99.90
15105;DHT22;7653;48.994;9.212;2023-02-19T00:25:54;8.80;99.90
15105;DHT22;7653;48.994;9.212;2023-02-19T00:28:20;8.80;99.90
15105;DHT22;7653;48.994;9.212;2023-02-19T00:30:46;8.80;99.90
15105;DHT22;7653;48.994;9.212;2023-02-19T00:33:11;8.80;99.90
15105;DHT22;7653;48.994;9.212;2023-02-19T00:35:37;8.80;99.90
15105;DHT22;7653;48.994;9.212;2023-02-19T00:38:03;8.80;99.90
15105;DHT22;7653;48.994;9.212;2023-02-19T00:40:29;8.80;99.90
15105;DHT22;7653;48.994;9.212;2023-02-19T00:42:55;8.90;99.90
15105;DHT22;7653;48.994;9.212;2023-02-19T00:45:21;8.80;99.90
15105;DHT22;7653;48.994;9.212;2023-02-19T00:47:47;8.80;99.90
15105;DHT22;7653;48.994;9.212;2023-02-19T00:50:13;8.80;99.90
15105;DHT22;7653;48.994;9.212;2023-02-19T00:52:38;8.80;99.90
15105;DHT22;7653;48.994;9.212;2023-02-19T00:55:04;8.90;99.90
15105;DHT22;7653;48.994;9.212;2023-02-19T00:57:30;8.80;99.90
15105;DHT22;7653;48.994;9.212;2023-02-19T00:59:56;8.80;99.90
15105;DHT22;7653;48.994;9.212;2023-02-19T01:02:21;8.70;99.90
15105;DHT22;7653;48.994;9.212;2023-02-19T01:04:47;8.70;99.90
15105;DHT22;7653;48.994;9.212;2023-02-19T01:07:13;8.70;99.90
15105;DHT22;7653;48.994;9.212;2023-02-19T01:09:38;8.70;99.90
15105;DHT22;7653;48.994;9.212;2023-02-19T01:12:05;8.70;99.90
15105;DHT22;7653;48.994;9.212;2023-02-19T01:14:31;8.70;99.90
15105;DHT22;7653;48.994;9.212;2023-02-19T01:16:56;8.70;99.90
15105;DHT22;7653;48.994;9.212;2023-02-19T01:19:22;8.70;99.90
15105;DHT22;7653;48.994;9.212;2023-02-19T01:21:48;8.70;99.90
15105;DHT22;7653;48.994;9.212;2023-02-19T01:24:13;8.70;99.90
15105;DHT22;7653;48.994;9.212;2023-02-19T01:26:41;8.70;99.90
15105;DHT22;7653;48.994;9.212;2023-02-19T01:29:07;8.70;99.90
15105;DHT22;7653;48.994;9.212;2023-02-19T01:31:33;8.80;99.90
15105;DHT22;7653;48.994;9.212;2023-02-19T01:34:00;8.80;99.90
15105;DHT22;7653;48.994;9.212;2023-02-19T01:36:27;8.70;99.90
15105;DHT22;7653;48.994;9.212;2023-02-19T01:38:53;8.80;99.90
15105;DHT22;7653;48.994;9.212;2023-02-19T01:41:21;8.80;99.90
15105;DHT22;7653;48.994;9.212;2023-02-19T01:46:43;8.80;99.90
15105;DHT22;7653;48.994;9.212;2023-02-19T01:51:45;8.80;99.90
15105;DHT22;7653;48.994;9.212;2023-02-19T01:54:19;8.80;99.90
15105;DHT22;7653;48.994;9.212;2023-02-19T01:56:46;8.80;99.90
15105;DHT22;7653;48.994;9.212;2023-02-19T01:59:13;8.70;99.90
15105;DHT22;7653;48.994;9.212;2023-02-19T02:01:40;8.80;99.90
15105;DHT22;7653;48.994;9.212;2023-02-19T02:04:07;8.80;99.90
15105;DHT22;7653;48.994;9.212;2023-02-19T02:06:52;8.70;99.90
15105;DHT22;7653;48.994;9.212;2023-02-19T02:09:20;8.70;99.90
15105;DHT22;7653;48.994;9.212;2023-02-19T02:12:06;8.70;99.90
15105;DHT22;7653;48.994;9.212;2023-02-19T02:14:35;8.70;99.90
15105;DHT22;7653;48.994;9.212;2023-02-19T02:36:04;8.70;99.90
15105;DHT22;7653;48.994;9.212;2023-02-19T02:38:32;8.70;99.90
15105;DHT22;7653;48.994;9.212;2023-02-19T02:40:59;8.70;99.90
15105;DHT22;7653;48.994;9.212;2023-02-19T02:43:25;8.70;99.90
15105;DHT22;7653;48.994;9.212;2023-02-19T02:45:50;8.70;99.90
15105;DHT22;7653;48.994;9.212;2023-02-19T02:50:47;8.70;99.90
15105;DHT22;7653;48.994;9.212;2023-02-19T02:53:21;8.70;99.90
15105;DHT22;7653;48.994;9.212;2023-02-19T02:56:09;8.70;99.90
15105;DHT22;7653;48.994;9.212;2023-02-19T02:58:36;8.70;99.90
15105;DHT22;7653;48.994;9.212;2023-02-19T03:01:12;8.70;99.90
15105;DHT22;7653;48.994;9.212;2023-02-19T03:04:01;8.80;99.90
15105;DHT22;7653;48.994;9.212;2023-02-19T03:06:29;8.80;99.90
15105;DHT22;7653;48.994;9.212;2023-02-19T03:08:58;8.70;99.90
15105;DHT22;7653;48.994;9.212;2023-02-19T03:11:26;8.70;99.90
15105;DHT22;7653;48.994;9.212;2023-02-19T03:14:22;8.70;99.90
15105;DHT22;7653;48.994;9.212;2023-02-19T03:17:14;8.80;99.90
15105;DHT22;7653;48.994;9.212;2023-02-19T03:20:03;8.80;99.90
15105;DHT22;7653;48.994;9.212;2023-02-19T03:22:35;8.80;99.90
15105;DHT22;7653;48.994;9.212;2023-02-19T03:25:06;8.70;99.90
15105;DHT22;7653;48.994;9.212;2023-02-19T03:27:55;8.80;99.70
15105;DHT22;7653;48.994;9.212;2023-02-19T03:30:25;8.90;99.20
15105;DHT22;7653;48.994;9.212;2023-02-19T03:32:56;8.80;98.80
15105;DHT22;7653;48.994;9.212;2023-02-19T03:35:29;8.80;97.90
15105;DHT22;7653;48.994;9.212;2023-02-19T03:41:06;8.80;96.90
15105;DHT22;7653;48.994;9.212;2023-02-19T03:43:39;8.90;96.40
15105;DHT22;7653;48.994;9.212;2023-02-19T03:46:13;8.90;95.70
15105;DHT22;7653;48.994;9.212;2023-02-19T03:49:55;8.90;95.70
15105;DHT22;7653;48.994;9.212;2023-02-19T03:52:03;8.90;96.00
15105;DHT22;7653;48.994;9.212;2023-02-19T03:54:39;8.90;95.60
15105;DHT22;7653;48.994;9.212;2023-02-19T03:57:17;8.90;95.00
15105;DHT22;7653;48.994;9.212;2023-02-19T04:00:00;8.90;93.90
15105;DHT22;7653;48.994;9.212;2023-02-19T04:02:38;8.90;94.20
15105;DHT22;7653;48.994;9.212;2023-02-19T04:07:44;8.90;93.10
15105;DHT22;7653;48.994;9.212;2023-02-19T04:10:12;8.90;93.10
15105;DHT22;7653;48.994;9.212;2023-02-19T04:12:42;9.00;92.60
15105;DHT22;7653;48.994;9.212;2023-02-19T04:15:15;9.00;92.50
15105;DHT22;7653;48.994;9.212;2023-02-19T04:17:49;9.00;93.10
15105;DHT22;7653;48.994;9.212;2023-02-19T04:20:17;8.90;92.40
15105;DHT22;7653;48.994;9.212;2023-02-19T04:22:43;9.00;93.10
15105;DHT22;7653;48.994;9.212;2023-02-19T04:25:09;9.00;92.80
15105;DHT22;7653;48.994;9.212;2023-02-19T04:27:39;8.90;93.10
15105;DHT22;7653;48.994;9.212;2023-02-19T04:30:07;8.90;93.00
15105;DHT22;7653;48.994;9.212;2023-02-19T04:32:33;8.90;93.10
15105;DHT22;7653;48.994;9.212;2023-02-19T04:34:59;8.90;93.30
15105;DHT22;7653;48.994;9.212;2023-02-19T04:37:24;8.80;93.00
15105;DHT22;7653;48.994;9.212;2023-02-19T04:39:50;8.80;93.00
15105;DHT22;7653;48.994;9.212;2023-02-19T04:42:15;8.80;93.00
15105;DHT22;7653;48.994;9.212;2023-02-19T04:44:41;8.80;93.90
15105;DHT22;7653;48.994;9.212;2023-02-19T04:47:07;8.80;94.20
15105;DHT22;7653;48.994;9.212;2023-02-19T04:49:33;8.80;93.60
15105;DHT22;7653;48.994;9.212;2023-02-19T04:51:58;8.80;93.00
15105;DHT22;7653;48.994;9.212;2023-02-19T04:54:24;8.80;92.70
15105;DHT22;7653;48.994;9.212;2023-02-19T04:56:49;8.80;92.40
15105;DHT22;7653;48.994;9.212;2023-02-19T04:59:15;8.80;92.00
15105;DHT22;7653;48.994;9.212;2023-02-19T05:01:41;8.80;92.40
15105;DHT22;7653;48.994;9.212;2023-02-19T05:04:07;8.80;92.20
15105;DHT22;7653;48.994;9.212;2023-02-19T05:06:32;8.80;92.30
15105;DHT22;7653;48.994;9.212;2023-02-19T05:08:58;8.70;92.30
15105;DHT22;7653;48.994;9.212;2023-02-19T05:11:23;8.80;93.00
15105;DHT22;7653;48.994;9.212;2023-02-19T05:13:49;8.70;93.10
15105;DHT22;7653;48.994;9.212;2023-02-19T05:16:15;8.70;93.00
15105;DHT22;7653;48.994;9.212;2023-02-19T05:18:43;8.70;92.70
15105;DHT22;7653;48.994;9.212;2023-02-19T05:21:09;8.70;92.10
15105;DHT22;7653;48.994;9.212;2023-02-19T05:23:35;8.70;91.50
15105;DHT22;7653;48.994;9.212;2023-02-19T05:26:09;8.70;91.50
15105;DHT22;7653;48.994;9.212;2023-02-19T05:28:36;8.70;91.00
15105;DHT22;7653;48.994;9.212;2023-02-19T05:31:06;8.80;91.00
15105;DHT22;7653;48.994;9.212;2023-02-19T05:33:33;8.80;90.50
15105;DHT22;7653;48.994;9.212;2023-02-19T05:36:02;8.70;90.80
15105;DHT22;7653;48.994;9.212;2023-02-19T05:38:28;8.80;90.80
15105;DHT22;7653;48.994;9.212;2023-02-19T05:40:54;8.80;90.30
15105;DHT22;7653;48.994;9.212;2023-02-19T05:43:19;8.80;89.80
15105;DHT22;7653;48.994;9.212;2023-02-19T05:45:45;8.80;88.70
15105;DHT22;7653;48.994;9.212;2023-02-19T05:48:11;8.80;89.20
15105;DHT22;7653;48.994;9.212;2023-02-19T05:50:40;8.80;90.00
15105;DHT22;7653;48.994;9.212;2023-02-19T05:53:16;8.80;91.20
15105;DHT22;7653;48.994;9.212;2023-02-19T05:55:41;8.80;91.60
15105;DHT22;7653;48.994;9.212;2023-02-19T05:58:07;8.70;91.80
15105;DHT22;7653;48.994;9.212;2023-02-19T06:00:33;8.70;92.40
15105;DHT22;7653;48.994;9.212;2023-02-19T06:02:59;8.70;91.80
15105;DHT22;7653;48.994;9.212;2023-02-19T06:05:25;8.80;91.40
15105;DHT22;7653;48.994;9.212;2023-02-19T06:07:50;8.80;91.00
15105;DHT22;7653;48.994;9.212;2023-02-19T06:10:17;8.80;90.00
15105;DHT22;7653;48.994;9.212;2023-02-19T06:12:42;8.80;89.60
15105;DHT22;7653;48.994;9.212;2023-02-19T06:15:08;8.80;89.40
15105;DHT22;7653;48.994;9.212;2023-02-19T06:17:34;8.80;87.90
15105;DHT22;7653;48.994;9.212;2023-02-19T06:20:00;8.80;87.90
15105;DHT22;7653;48.994;9.212;2023-02-19T06:22:27;8.80;86.30
15105;DHT22;7653;48.994;9.212;2023-02-19T06:24:52;8.80;85.40
15105;DHT22;7653;48.994;9.212;2023-02-19T06:27:18;8.90;85.00
15105;DHT22;7653;48.994;9.212;2023-02-19T06:29:43;8.90;83.90
15105;DHT22;7653;48.994;9.212;2023-02-19T06:32:09;8.90;84.90
15105;DHT22;7653;48.994;9.212;2023-02-19T06:34:35;8.90;85.30
15105;DHT22;7653;48.994;9.212;2023-02-19T06:37:01;8.90;84.70
15105;DHT22;7653;48.994;9.212;2023-02-19T06:39:27;8.90;85.20
15105;DHT22;7653;48.994;9.212;2023-02-19T06:41:56;8.90;85.20
15105;DHT22;7653;48.994;9.212;2023-02-19T06:44:23;8.90;83.40
15105;DHT22;7653;48.994;9.212;2023-02-19T06:46:49;8.90;83.20
15105;DHT22;7653;48.994;9.212;2023-02-19T06:49:14;8.90;82.60
15105;DHT22;7653;48.994;9.212;2023-02-19T06:51:41;9.00;82.90
15105;DHT22;7653;48.994;9.212;2023-02-19T06:54:06;8.90;81.50
15105;DHT22;7653;48.994;9.212;2023-02-19T06:56:34;9.00;82.40
15105;DHT22;7653;48.994;9.212;2023-02-19T06:59:05;8.90;81.60
15105;DHT22;7653;48.994;9.212;2023-02-19T07:01:33;8.90;80.70
15105;DHT22;7653;48.994;9.212;2023-02-19T07:03:59;9.00;81.80
15105;DHT22;7653;48.994;9.212;2023-02-19T07:06:25;9.00;81.80
15105;DHT22;7653;48.994;9.212;2023-02-19T07:08:51;9.00;79.00
15105;DHT22;7653;48.994;9.212;2023-02-19T07:11:18;9.00;81.50
15105;DHT22;7653;48.994;9.212;2023-02-19T07:13:44;9.00;80.90
15105;DHT22;7653;48.994;9.212;2023-02-19T07:16:11;9.10;79.70
15105;DHT22;7653;48.994;9.212;2023-02-19T07:18:37;9.10;79.10
15105;DHT22;7653;48.994;9.212;2023-02-19T07:21:14;9.10;79.10
15105;DHT22;7653;48.994;9.212;2023-02-19T07:23:41;9.10;79.10
15105;DHT22;7653;48.994;9.212;2023-02-19T07:26:11;9.10;79.10
15105;DHT22;7653;48.994;9.212;2023-02-19T07:28:38;9.00;80.50
15105;DHT22;7653;48.994;9.212;2023-02-19T07:31:04;9.00;81.60
15105;DHT22;7653;48.994;9.212;2023-02-19T07:33:30;9.00;81.70
15105;DHT22;7653;48.994;9.212;2023-02-19T07:35:56;9.00;80.60
15105;DHT22;7653;48.994;9.212;2023-02-19T07:38:23;9.00;81.30
15105;DHT22;7653;48.994;9.212;2023-02-19T07:40:53;9.00;81.10
15105;DHT22;7653;48.994;9.212;2023-02-19T07:43:19;9.00;80.60
15105;DHT22;7653;48.994;9.212;2023-02-19T07:45:45;9.00;81.50
15105;DHT22;7653;48.994;9.212;2023-02-19T07:48:11;9.10;79.10
15105;DHT22;7653;48.994;9.212;2023-02-19T07:50:37;9.20;79.20
15105;DHT22;7653;48.994;9.212;2023-02-19T07:53:02;9.10;78.50
15105;DHT22;7653;48.994;9.212;2023-02-19T07:55:30;9.20;79.10
15105;DHT22;7653;48.994;9.212;2023-02-19T07:57:57;9.20;77.20
15105;DHT22;7653;48.994;9.212;2023-02-19T08:00:23;9.30;76.10
15105;DHT22;7653;48.994;9.212;2023-02-19T08:02:50;9.30;75.30
15105;DHT22;7653;48.994;9.212;2023-02-19T08:05:31;9.40;73.60
15105;DHT22;7653;48.994;9.212;2023-02-19T08:07:58;9.50;72.60
15105;DHT22;7653;48.994;9.212;2023-02-19T08:10:24;9.30;69.90
15105;DHT22;7653;48.994;9.212;2023-02-19T08:13:11;9.50;71.10
15105;DHT22;7653;48.994;9.212;2023-02-19T08:16:13;9.50;71.00
15105;DHT22;7653;48.994;9.212;2023-02-19T08:18:40;9.50;72.00
15105;DHT22;7653;48.994;9.212;2023-02-19T08:21:05;9.50;70.10
15105;DHT22;7653;48.994;9.212;2023-02-19T08:23:31;9.50;68.80
15105;DHT22;7653;48.994;9.212;2023-02-19T08:25:58;9.60;67.80
15105;DHT22;7653;48.994;9.212;2023-02-19T08:28:24;9.60;68.60
15105;DHT22;7653;48.994;9.212;2023-02-19T08:30:50;9.60;68.10
15105;DHT22;7653;48.994;9.212;2023-02-19T08:33:20;9.60;70.20
15105;DHT22;7653;48.994;9.212;2023-02-19T08:35:46;9.50;69.50
15105;DHT22;7653;48.994;9.212;2023-02-19T08:38:12;9.50;69.10
15105;DHT22;7653;48.994;9.212;2023-02-19T08:40:39;9.50;70.10
15105;DHT22;7653;48.994;9.212;2023-02-19T08:43:07;9.60;70.20
15105;DHT22;7653;48.994;9.212;2023-02-19T08:45:33;9.60;69.20
15105;DHT22;7653;48.994;9.212;2023-02-19T08:47:59;9.70;68.80
15105;DHT22;7653;48.994;9.212;2023-02-19T08:50:25;9.60;65.80
15105;DHT22;7653;48.994;9.212;2023-02-19T08:52:51;9.60;67.60
15105;DHT22;7653;48.994;9.212;2023-02-19T08:55:16;9.70;67.60
15105;DHT22;7653;48.994;9.212;2023-02-19T08:57:42;9.70;65.60
15105;DHT22;7653;48.994;9.212;2023-02-19T09:00:08;9.60;66.70
15105;DHT22;7653;48.994;9.212;2023-02-19T09:02:34;9.70;65.30
15105;DHT22;7653;48.994;9.212;2023-02-19T09:05:00;9.70;65.50
15105;DHT22;7653;48.994;9.212;2023-02-19T09:07:26;9.80;66.10
15105;DHT22;7653;48.994;9.212;2023-02-19T09:09:52;9.90;64.20
15105;DHT22;7653;48.994;9.212;2023-02-19T09:12:18;9.80;65.20
15105;DHT22;7653;48.994;9.212;2023-02-19T09:14:44;9.80;63.70
15105;DHT22;7653;48.994;9.212;2023-02-19T09:17:10;9.90;60.80
15105;DHT22;7653;48.994;9.212;2023-02-19T09:19:35;10.00;63.10
15105;DHT22;7653;48.994;9.212;2023-02-19T09:22:02;10.00;61.80
15105;DHT22;7653;48.994;9.212;2023-02-19T09:24:28;10.10;60.00
15105;DHT22;7653;48.994;9.212;2023-02-19T09:26:54;10.30;60.90
15105;DHT22;7653;48.994;9.212;2023-02-19T09:29:29;10.30;58.10
15105;DHT22;7653;48.994;9.212;2023-02-19T09:31:56;10.20;58.90
15105;DHT22;7653;48.994;9.212;2023-02-19T09:34:23;10.10;59.20
15105;DHT22;7653;48.994;9.212;2023-02-19T09:36:49;10.30;58.80
15105;DHT22;7653;48.994;9.212;2023-02-19T09:39:14;10.30;55.40
15105;DHT22;7653;48.994;9.212;2023-02-19T09:42:14;10.50;55.60
15105;DHT22;7653;48.994;9.212;2023-02-19T09:44:45;10.40;55.40
15105;DHT22;7653;48.994;9.212;2023-02-19T09:47:18;10.40;55.50
15105;DHT22;7653;48.994;9.212;2023-02-19T09:49:50;10.30;54.90
15105;DHT22;7653;48.994;9.212;2023-02-19T09:52:18;10.50;56.20
15105;DHT22;7653;48.994;9.212;2023-02-19T09:54:49;10.60;54.50
15105;DHT22;7653;48.994;9.212;2023-02-19T09:57:18;10.70;53.20
15105;DHT22;7653;48.994;9.212;2023-02-19T09:59:54;10.50;51.70
15105;DHT22;7653;48.994;9.212;2023-02-19T10:02:23;10.60;54.00
15105;DHT22;7653;48.994;9.212;2023-02-19T10:04:51;10.80;51.20
15105;DHT22;7653;48.994;9.212;2023-02-19T10:07:18;10.70;50.20
15105;DHT22;7653;48.994;9.212;2023-02-19T10:09:46;10.50;51.40
15105;DHT22;7653;48.994;9.212;2023-02-19T10:12:28;10.50;51.70
15105;DHT22;7653;48.994;9.212;2023-02-19T10:15:00;10.50;52.00
15105;DHT22;7653;48.994;9.212;2023-02-19T10:17:30;10.50;50.80
15105;DHT22;7653;48.994;9.212;2023-02-19T10:19:59;10.60;50.90
15105;DHT22;7653;48.994;9.212;2023-02-19T10:22:28;10.70;49.40
15105;DHT22;7653;48.994;9.212;2023-02-19T10:24:54;10.50;50.90
15105;DHT22;7653;48.994;9.212;2023-02-19T10:27:21;10.60;50.30
15105;DHT22;7653;48.994;9.212;2023-02-19T10:29:48;10.60;50.90
15105;DHT22;7653;48.994;9.212;2023-02-19T10:32:20;10.50;49.60
15105;DHT22;7653;48.994;9.212;2023-02-19T10:37:42;10.50;50.20
15105;DHT22;7653;48.994;9.212;2023-02-19T10:40:18;10.60;50.00
15105;DHT22;7653;48.994;9.212;2023-02-19T10:42:50;10.80;49.10
15105;DHT22;7653;48.994;9.212;2023-02-19T10:45:20;10.80;48.40
15105;DHT22;7653;48.994;9.212;2023-02-19T10:47:48;10.70;49.30
15105;DHT22;7653;48.994;9.212;2023-02-19T10:50:24;10.90;50.00
15105;DHT22;7653;48.994;9.212;2023-02-19T10:52:53;10.90;51.20
15105;DHT22;7653;48.994;9.212;2023-02-19T10:55:34;11.00;48.30
15105;DHT22;7653;48.994;9.212;2023-02-19T10:58:25;11.00;48.20
15105;DHT22;7653;48.994;9.212;2023-02-19T11:03:36;11.00;47.70
15105;DHT22;7653;48.994;9.212;2023-02-19T11:06:03;11.00;47.80
15105;DHT22;7653;48.994;9.212;2023-02-19T11:08:44;11.10;47.70
15105;DHT22;7653;48.994;9.212;2023-02-19T11:11:23;11.00;46.50
15105;DHT22;7653;48.994;9.212;2023-02-19T11:13:50;10.90;47.50
15105;DHT22;7653;48.994;9.212;2023-02-19T11:16:16;11.10;46.00
15105;DHT22;7653;48.994;9.212;2023-02-19T11:18:42;10.90;47.50
15105;DHT22;7653;48.994;9.212;2023-02-19T11:21:29;10.90;49.10
15105;DHT22;7653;48.994;9.212;2023-02-19T11:24:32;11.00;48.10
15105;DHT22;7653;48.994;9.212;2023-02-19T11:27:00;11.20;47.10
15105;DHT22;7653;48.994;9.212;2023-02-19T11:29:29;11.20;46.70
15105;DHT22;7653;48.994;9.212;2023-02-19T11:32:27;11.00;49.20
15105;DHT22;7653;48.994;9.212;2023-02-19T11:35:17;11.10;48.30
15105;DHT22;7653;48.994;9.212;2023-02-19T11:40:26;11.20;47.50
15105;DHT22;7653;48.994;9.212;2023-02-19T11:43:09;11.10;47.70
15105;DHT22;7653;48.994;9.212;2023-02-19T11:56:39;10.90;45.80
15105;DHT22;7653;48.994;9.212;2023-02-19T12:02:06;10.90;44.80
15105;DHT22;7653;48.994;9.212;2023-02-19T12:08:05;10.90;46.00
15105;DHT22;7653;48.994;9.212;2023-02-19T12:13:41;11.10;44.20
15105;DHT22;7653;48.994;9.212;2023-02-19T12:24:35;11.10;43.80
15105;DHT22;7653;48.994;9.212;2023-02-19T12:27:30;11.40;43.60
15105;DHT22;7653;48.994;9.212;2023-02-19T12:35:30;11.40;41.90
15105;DHT22;7653;48.994;9.212;2023-02-19T12:43:25;12.00;41.90
15105;DHT22;7653;48.994;9.212;2023-02-19T12:46:35;12.00;40.00
15105;DHT22;7653;48.994;9.212;2023-02-19T12:49:09;11.70;41.80
15105;DHT22;7653;48.994;9.212;2023-02-19T12:52:07;11.40;41.90
15105;DHT22;7653;48.994;9.212;2023-02-19T12:54:36;11.50;42.30
15105;DHT22;7653;48.994;9.212;2023-02-19T12:57:17;11.50;42.20
15105;DHT22;7653;48.994;9.212;2023-02-19T13:02:39;11.20;45.10
15105;DHT22;7653;48.994;9.212;2023-02-19T13:12:48;11.10;48.00
15105;DHT22;7653;48.994;9.212;2023-02-19T13:17:51;10.80;48.30
15105;DHT22;7653;48.994;9.212;2023-02-19T13:23:07;11.20;46.70
15105;DHT22;7653;48.994;9.212;2023-02-19T13:37:22;11.50;45.60
15105;DHT22;7653;48.994;9.212;2023-02-19T13:39:53;11.60;44.90
15105;DHT22;7653;48.994;9.212;2023-02-19T13:42:35;11.70;44.30
15105;DHT22;7653;48.994;9.212;2023-02-19T13:45:03;11.40;44.80
15105;DHT22;7653;48.994;9.212;2023-02-19T13:52:52;11.40;43.80
15105;DHT22;7653;48.994;9.212;2023-02-19T14:01:09;11.20;44.20
15105;DHT22;7653;48.994;9.212;2023-02-19T14:03:53;11.40;43.50
15105;DHT22;7653;48.994;9.212;2023-02-19T14:07:52;11.60;43.60
15105;DHT22;7653;48.994;9.212;2023-02-19T14:09:46;11.50;43.50
15105;DHT22;7653;48.994;9.212;2023-02-19T14:30:26;13.10;34.90
15105;DHT22;7653;48.994;9.212;2023-02-19T14:32:53;12.90;35.40
15105;DHT22;7653;48.994;9.212;2023-02-19T14:35:33;13.20;33.70
15105;DHT22;7653;48.994;9.212;2023-02-19T14:38:00;13.50;33.70
15105;DHT22;7653;48.994;9.212;2023-02-19T14:40:34;14.30;31.30
15105;DHT22;7653;48.994;9.212;2023-02-19T14:43:04;14.30;29.50
15105;DHT22;7653;48.994;9.212;2023-02-19T14:45:38;14.10;29.40
15105;DHT22;7653;48.994;9.212;2023-02-19T14:48:05;14.00;28.30
15105;DHT22;7653;48.994;9.212;2023-02-19T14:50:31;13.40;29.60
15105;DHT22;7653;48.994;9.212;2023-02-19T14:53:02;12.80;32.00
15105;DHT22;7653;48.994;9.212;2023-02-19T14:55:34;12.50;32.80
15105;DHT22;7653;48.994;9.212;2023-02-19T14:58:04;12.40;32.70
15105;DHT22;7653;48.994;9.212;2023-02-19T15:00:39;12.10;33.30
15105;DHT22;7653;48.994;9.212;2023-02-19T15:03:20;12.00;32.40
15105;DHT22;7653;48.994;9.212;2023-02-19T15:05:54;11.80;33.50
15105;DHT22;7653;48.994;9.212;2023-02-19T15:08:28;11.70;34.00
15105;DHT22;7653;48.994;9.212;2023-02-19T15:10:55;11.60;34.20
15105;DHT22;7653;48.994;9.212;2023-02-19T15:13:26;11.50;36.30
15105;DHT22;7653;48.994;9.212;2023-02-19T15:15:52;11.60;34.80
15105;DHT22;7653;48.994;9.212;2023-02-19T15:18:24;11.60;35.50
15105;DHT22;7653;48.994;9.212;2023-02-19T15:20:57;11.50;36.30
15105;DHT22;7653;48.994;9.212;2023-02-19T15:23:24;11.60;37.20
15105;DHT22;7653;48.994;9.212;2023-02-19T15:25:50;11.50;36.40
15105;DHT22;7653;48.994;9.212;2023-02-19T15:30:49;11.40;38.10
15105;DHT22;7653;48.994;9.212;2023-02-19T15:33:19;11.40;38.30
15105;DHT22;7653;48.994;9.212;2023-02-19T15:35:50;11.30;39.20
15105;DHT22;7653;48.994;9.212;2023-02-19T15:38:16;11.30;40.60
15105;DHT22;7653;48.994;9.212;2023-02-19T15:40:46;11.30;40.40
15105;DHT22;7653;48.994;9.212;2023-02-19T15:43:47;11.30;40.60
15105;DHT22;7653;48.994;9.212;2023-02-19T15:46:20;11.10;41.70
15105;DHT22;7653;48.994;9.212;2023-02-19T15:49:27;11.00;42.50
15105;DHT22;7653;48.994;9.212;2023-02-19T15:51:49;10.90;41.50
15105;DHT22;7653;48.994;9.212;2023-02-19T15:54:25;11.00;42.80
15105;DHT22;7653;48.994;9.212;2023-02-19T15:56:53;11.10;42.50
15105;DHT22;7653;48.994;9.212;2023-02-19T15:59:37;11.00;41.70
15105;DHT22;7653;48.994;9.212;2023-02-19T16:02:07;10.90;42.90
15105;DHT22;7653;48.994;9.212;2023-02-19T16:04:34;10.80;43.50
15105;DHT22;7653;48.994;9.212;2023-02-19T16:07:02;11.00;43.80
15105;DHT22;7653;48.994;9.212;2023-02-19T16:09:35;11.00;43.20
15105;DHT22;7653;48.994;9.212;2023-02-19T16:12:02;11.00;42.90
15105;DHT22;7653;48.994;9.212;2023-02-19T16:14:33;11.00;41.50
15105;DHT22;7653;48.994;9.212;2023-02-19T16:17:11;10.90;42.50
15105;DHT22;7653;48.994;9.212;2023-02-19T16:19:50;10.80;42.80
15105;DHT22;7653;48.994;9.212;2023-02-19T16:22:19;10.70;42.70
15105;DHT22;7653;48.994;9.212;2023-02-19T16:25:04;10.70;43.30
15105;DHT22;7653;48.994;9.212;2023-02-19T16:29:57;10.60;42.40
15105;DHT22;7653;48.994;9.212;2023-02-19T16:32:23;10.50;43.00
15105;DHT22;7653;48.994;9.212;2023-02-19T16:34:50;10.50;43.40
15105;DHT22;7653;48.994;9.212;2023-02-19T16:42:32;10.40;44.40
15105;DHT22;7653;48.994;9.212;2023-02-19T16:44:57;10.40;44.50
15105;DHT22;7653;48.994;9.212;2023-02-19T16:47:31;10.40;44.50
15105;DHT22;7653;48.994;9.212;2023-02-19T16:50:02;10.40;45.00
15105;DHT22;7653;48.994;9.212;2023-02-19T16:52:28;10.40;44.80
15105;DHT22;7653;48.994;9.212;2023-02-19T16:54:54;10.40;45.20
15105;DHT22;7653;48.994;9.212;2023-02-19T16:57:19;10.40;45.00
15105;DHT22;7653;48.994;9.212;2023-02-19T16:59:46;10.40;45.00
15105;DHT22;7653;48.994;9.212;2023-02-19T17:02:17;10.30;45.20
15105;DHT22;7653;48.994;9.212;2023-02-19T17:04:44;10.30;45.90
15105;DHT22;7653;48.994;9.212;2023-02-19T17:07:15;10.20;45.70
15105;DHT22;7653;48.994;9.212;2023-02-19T17:09:41;10.20;47.10
15105;DHT22;7653;48.994;9.212;2023-02-19T17:12:11;10.20;47.00
15105;DHT22;7653;48.994;9.212;2023-02-19T17:14:38;10.10;47.30
15105;DHT22;7653;48.994;9.212;2023-02-19T17:17:04;10.10;47.10
15105;DHT22;7653;48.994;9.212;2023-02-19T17:19:30;10.10;47.20
15105;DHT22;7653;48.994;9.212;2023-02-19T17:21:56;10.10;46.60
15105;DHT22;7653;48.994;9.212;2023-02-19T17:24:23;10.20;47.20
15105;DHT22;7653;48.994;9.212;2023-02-19T17:26:49;10.20;46.80
15105;DHT22;7653;48.994;9.212;2023-02-19T17:29:15;10.10;47.30
15105;DHT22;7653;48.994;9.212;2023-02-19T17:31:43;10.20;46.90
15105;DHT22;7653;48.994;9.212;2023-02-19T17:34:09;10.10;47.10
15105;DHT22;7653;48.994;9.212;2023-02-19T17:36:35;10.00;47.70
15105;DHT22;7653;48.994;9.212;2023-02-19T17:39:04;10.00;47.60
15105;DHT22;7653;48.994;9.212;2023-02-19T17:41:31;10.00;47.50
15105;DHT22;7653;48.994;9.212;2023-02-19T17:43:57;10.00;47.50
15105;DHT22;7653;48.994;9.212;2023-02-19T17:46:26;10.00;47.70
15105;DHT22;7653;48.994;9.212;2023-02-19T17:48:52;10.00;47.80
15105;DHT22;7653;48.994;9.212;2023-02-19T17:51:19;10.10;47.50
15105;DHT22;7653;48.994;9.212;2023-02-19T17:53:48;10.10;47.30
15105;DHT22;7653;48.994;9.212;2023-02-19T17:56:22;10.00;47.50
15105;DHT22;7653;48.994;9.212;2023-02-19T17:58:50;10.00;47.70
15105;DHT22;7653;48.994;9.212;2023-02-19T18:01:18;10.00;48.10
15105;DHT22;7653;48.994;9.212;2023-02-19T18:03:46;10.00;48.40
15105;DHT22;7653;48.994;9.212;2023-02-19T18:06:12;9.90;49.30
15105;DHT22;7653;48.994;9.212;2023-02-19T18:08:38;10.00;48.10
15105;DHT22;7653;48.994;9.212;2023-02-19T18:11:05;9.90;49.20
15105;DHT22;7653;48.994;9.212;2023-02-19T18:13:31;10.00;48.10
15105;DHT22;7653;48.994;9.212;2023-02-19T18:15:57;10.00;48.10
15105;DHT22;7653;48.994;9.212;2023-02-19T18:18:22;9.90;49.30
15105;DHT22;7653;48.994;9.212;2023-02-19T18:20:49;10.00;48.20
15105;DHT22;7653;48.994;9.212;2023-02-19T18:23:14;10.00;48.30
15105;DHT22;7653;48.994;9.212;2023-02-19T18:25:40;9.90;49.90
15105;DHT22;7653;48.994;9.212;2023-02-19T18:28:06;9.90;50.80
15105;DHT22;7653;48.994;9.212;2023-02-19T18:30:32;9.80;50.00
15105;DHT22;7653;48.994;9.212;2023-02-19T18:32:57;10.00;48.70
15105;DHT22;7653;48.994;9.212;2023-02-19T18:35:23;10.00;47.80
15105;DHT22;7653;48.994;9.212;2023-02-19T18:37:52;10.00;48.80
15105;DHT22;7653;48.994;9.212;2023-02-19T18:40:20;10.00;48.60
15105;DHT22;7653;48.994;9.212;2023-02-19T18:42:46;9.90;49.30